Time;durP1;ratioP1;P1;durP2;ratioP2;P2;SDS_P1;SDS_P2;PMS_P1;PMS_P2;Temp;Humidity;BMP_temperature;BMP_pressure;BME280_temperature;BME280_humidity;BME280_pressure;Samples;Min_cycle;Max_cycle;Signal;HPM_P1;HPM_P2
2022/05/26 00:01:53;;;;;;;0.43;0.43;;;13.60;99.90;;;;;;5095171;28;20051;-71
2022/05/26 00:04:19;;;;;;;0.60;0.60;;;13.60;99.90;;;;;;5094866;28;20047;-72
2022/05/26 00:06:44;;;;;;;3.73;0.83;;;13.60;99.90;;;;;;5094714;28;20041;-76
2022/05/26 00:09:10;;;;;;;0.40;0.40;;;13.60;99.90;;;;;;5094087;28;20044;-75
2022/05/26 00:11:38;;;;;;;0.70;0.70;;;13.60;99.90;;;;;;5095552;28;20503;-70
2022/05/26 00:14:09;;;;;;;0.40;0.40;;;13.60;99.90;;;;;;5094296;28;20066;-74
2022/05/26 00:16:37;;;;;;;0.40;0.40;;;13.60;99.90;;;;;;5094710;28;20053;-73
2022/05/26 00:19:02;;;;;;;0.40;0.40;;;13.60;99.90;;;;;;5093480;28;20051;-73
2022/05/26 00:21:28;;;;;;;0.40;0.40;;;13.60;99.90;;;;;;5094473;28;20047;-74
2022/05/26 00:23:55;;;;;;;0.40;0.40;;;13.50;99.90;;;;;;5094761;28;20151;-75
2022/05/26 00:26:21;;;;;;;0.30;0.30;;;13.50;99.90;;;;;;5094482;28;20044;-74
2022/05/26 00:28:46;;;;;;;0.40;0.40;;;13.50;99.90;;;;;;5094502;28;20384;-76
2022/05/26 00:31:12;;;;;;;0.40;0.40;;;13.50;99.90;;;;;;5094687;28;20147;-71
2022/05/26 00:33:37;;;;;;;0.40;0.40;;;13.50;99.90;;;;;;5094631;28;20033;-72
2022/05/26 00:36:07;;;;;;;1.10;1.05;;;13.50;99.90;;;;;;5094330;28;20040;-72
2022/05/26 00:38:33;;;;;;;0.40;0.40;;;13.50;99.90;;;;;;5094357;28;20047;-71
2022/05/26 00:41:04;;;;;;;0.53;0.53;;;13.50;99.90;;;;;;5094275;28;20044;-74
2022/05/26 00:43:30;;;;;;;0.63;0.63;;;13.50;99.90;;;;;;5094271;28;20050;-73
2022/05/26 00:46:09;;;;;;;0.30;0.30;;;13.50;99.90;;;;;;5094164;28;20048;-72
2022/05/26 00:48:47;;;;;;;0.40;0.40;;;13.50;99.90;;;;;;5094276;28;20404;-71
2022/05/26 00:51:15;;;;;;;0.63;0.63;;;13.50;99.90;;;;;;5094137;28;20468;-73
2022/05/26 00:53:47;;;;;;;0.40;0.40;;;13.50;99.90;;;;;;5094096;28;20040;-76
2022/05/26 00:56:18;;;;;;;0.40;0.40;;;13.50;99.90;;;;;;5094374;28;20051;-72
2022/05/26 00:58:48;;;;;;;0.40;0.40;;;13.50;99.90;;;;;;5094126;28;20443;-73
2022/05/26 01:01:16;;;;;;;0.40;0.40;;;13.50;99.90;;;;;;5093996;28;20051;-71
2022/05/26 01:03:48;;;;;;;4.88;1.05;;;13.50;99.90;;;;;;5094049;28;20052;-76
2022/05/26 01:06:18;;;;;;;0.40;0.40;;;13.50;99.90;;;;;;5093774;28;20040;-71
2022/05/26 01:08:55;;;;;;;0.50;0.50;;;13.50;99.90;;;;;;5094232;28;20509;-73
2022/05/26 01:11:22;;;;;;;0.40;0.40;;;13.50;99.90;;;;;;5093995;28;20071;-73
2022/05/26 01:13:55;;;;;;;0.40;0.40;;;13.50;99.90;;;;;;5093874;28;20502;-75
2022/05/26 01:16:42;;;;;;;1.55;1.45;;;13.50;99.90;;;;;;5094376;28;20044;-74
2022/05/26 01:19:35;;;;;;;1.75;1.10;;;13.50;99.90;;;;;;5096661;28;20392;-73
2022/05/26 01:22:42;;;;;;;0.40;0.40;;;13.50;99.90;;;;;;5100604;28;20127;-77
2022/05/26 01:25:10;;;;;;;0.90;0.63;;;13.50;99.90;;;;;;5099706;28;20087;-71
2022/05/26 01:27:44;;;;;;;1.10;0.77;;;13.50;99.90;;;;;;5100746;28;20105;-70
2022/05/26 01:30:21;;;;;;;0.40;0.40;;;13.50;99.90;;;;;;5100647;28;20127;-74
2022/05/26 01:33:05;;;;;;;0.50;0.50;;;13.50;99.90;;;;;;5100465;28;20097;-74
2022/05/26 01:35:41;;;;;;;0.30;0.30;;;13.50;99.90;;;;;;5100557;28;20044;-73
2022/05/26 01:38:24;;;;;;;0.40;0.40;;;13.50;99.90;;;;;;5100445;28;20411;-74
2022/05/26 01:41:24;;;;;;;0.47;0.47;;;13.50;99.90;;;;;;5100296;28;20480;-72
2022/05/26 01:44:04;;;;;;;0.93;0.93;;;13.50;99.90;;;;;;5100350;28;20468;-72
2022/05/26 01:46:43;;;;;;;0.40;0.40;;;13.50;99.90;;;;;;5100350;28;20123;-76
2022/05/26 01:49:50;;;;;;;0.40;0.40;;;13.50;99.90;;;;;;5100478;28;20601;-74
2022/05/26 01:52:23;;;;;;;0.40;0.40;;;13.60;99.90;;;;;;5082051;28;20079;-72
2022/05/26 01:55:12;;;;;;;0.40;0.40;;;13.60;99.90;;;;;;5100150;28;20122;-71
2022/05/26 01:57:56;;;;;;;0.50;0.50;;;13.50;99.90;;;;;;5100164;28;20097;-74
2022/05/26 02:00:21;;;;;;;0.70;0.70;;;13.60;99.90;;;;;;5100691;28;20047;-71
2022/05/26 02:02:55;;;;;;;0.70;0.70;;;13.50;99.90;;;;;;5100210;28;20468;-74
2022/05/26 02:05:27;;;;;;;0.50;0.50;;;13.50;99.90;;;;;;5100346;28;20040;-74
2022/05/26 02:08:28;;;;;;;0.40;0.40;;;13.50;99.90;;;;;;5100179;28;20048;-71
2022/05/26 02:11:09;;;;;;;0.30;0.30;;;13.50;99.90;;;;;;5085778;28;20052;-74
2022/05/26 02:13:47;;;;;;;0.30;0.30;;;13.50;99.90;;;;;;5100061;28;20050;-72
2022/05/26 02:16:36;;;;;;;0.47;0.40;;;13.60;99.90;;;;;;5100214;28;20035;-73
2022/05/26 02:19:35;;;;;;;0.40;0.40;;;13.60;99.90;;;;;;5058155;28;20105;-72
2022/05/26 02:22:14;;;;;;;0.40;0.40;;;13.50;99.90;;;;;;5100265;28;20040;-76
2022/05/26 02:24:53;;;;;;;0.47;0.47;;;13.50;99.90;;;;;;5099987;28;20075;-74
2022/05/26 02:27:19;;;;;;;0.75;0.75;;;13.50;99.90;;;;;;5099903;28;20096;-74
2022/05/26 02:29:52;;;;;;;0.40;0.40;;;13.50;99.90;;;;;;5100201;28;20039;-71
2022/05/26 02:32:21;;;;;;;2.05;1.90;;;13.50;99.90;;;;;;5095950;28;20075;-73
2022/05/26 02:34:49;;;;;;;0.65;0.65;;;13.50;99.90;;;;;;5096627;28;20502;-73
2022/05/26 02:37:16;;;;;;;1.20;0.50;;;13.40;99.90;;;;;;5096793;28;20040;-75
2022/05/26 02:39:42;;;;;;;0.60;0.60;;;13.40;99.90;;;;;;5096515;28;20088;-74
2022/05/26 02:42:09;;;;;;;0.40;0.40;;;13.40;99.90;;;;;;5096569;28;20052;-74
2022/05/26 02:44:35;;;;;;;0.40;0.40;;;13.40;99.90;;;;;;5096444;28;20044;-76
2022/05/26 02:47:51;;;;;;;1.27;1.23;;;13.40;99.90;;;;;;5096482;28;20492;-76
2022/05/26 02:50:34;;;;;;;0.40;0.40;;;13.40;99.90;;;;;;5061936;28;20059;-74
2022/05/26 02:53:05;;;;;;;0.50;0.50;;;13.40;99.90;;;;;;5096361;28;20468;-74
2022/05/26 02:55:58;;;;;;;0.40;0.40;;;13.40;99.90;;;;;;5096569;28;20036;-75
2022/05/26 02:58:51;;;;;;;0.60;0.60;;;13.40;99.90;;;;;;5096268;28;20048;-74
2022/05/26 03:01:38;;;;;;;1.13;1.05;;;13.40;99.90;;;;;;5096166;28;20403;-74
2022/05/26 03:04:06;;;;;;;0.50;0.50;;;13.40;99.90;;;;;;5096096;28;20502;-74
2022/05/26 03:06:49;;;;;;;0.65;0.65;;;13.40;99.90;;;;;;5096030;28;20047;-71
2022/05/26 03:09:15;;;;;;;0.50;0.50;;;13.40;99.90;;;;;;5096658;28;20053;-74
2022/05/26 03:11:49;;;;;;;1.98;1.65;;;13.40;99.90;;;;;;5096019;28;20055;-75
2022/05/26 03:14:17;;;;;;;0.60;0.60;;;13.40;99.90;;;;;;5096222;28;20044;-76
2022/05/26 03:16:42;;;;;;;0.30;0.30;;;13.40;99.90;;;;;;5095983;28;20044;-76
2022/05/26 03:19:08;;;;;;;3.30;1.17;;;13.50;99.90;;;;;;5095856;28;20454;-74
2022/05/26 03:21:34;;;;;;;0.43;0.43;;;13.40;99.90;;;;;;5096377;28;20054;-75
2022/05/26 03:24:00;;;;;;;0.30;0.30;;;13.50;99.90;;;;;;5095787;28;20051;-71
2022/05/26 03:26:26;;;;;;;0.50;0.50;;;13.50;99.90;;;;;;5095618;28;20044;-73
2022/05/26 03:28:52;;;;;;;0.43;0.43;;;13.50;99.90;;;;;;5095761;28;20445;-73
2022/05/26 03:31:17;;;;;;;0.40;0.40;;;13.50;99.90;;;;;;5095608;28;20124;-75
2022/05/26 03:41:56;;;;;;;0.60;0.60;;;13.50;99.90;;;;;;5095281;28;20048;-74
2022/05/26 03:44:24;;;;;;;0.40;0.40;;;13.50;99.90;;;;;;5095200;28;20086;-73
2022/05/26 03:46:50;;;;;;;0.40;0.40;;;13.50;99.90;;;;;;5094401;28;20052;-76
2022/05/26 03:49:16;;;;;;;0.65;0.65;;;13.50;99.90;;;;;;5095306;28;20051;-75
2022/05/26 03:51:42;;;;;;;0.53;0.53;;;13.60;99.90;;;;;;5095185;28;20044;-74
2022/05/26 03:54:08;;;;;;;0.43;0.43;;;13.50;99.90;;;;;;5095422;28;20085;-73
2022/05/26 03:56:33;;;;;;;0.40;0.40;;;13.60;99.90;;;;;;5094953;28;20145;-76
2022/05/26 03:59:00;;;;;;;1.35;1.05;;;13.60;99.90;;;;;;5094986;28;20052;-75
2022/05/26 04:01:27;;;;;;;0.80;0.63;;;13.60;99.90;;;;;;5095082;28;20142;-76
2022/05/26 04:03:55;;;;;;;0.40;0.40;;;13.60;99.90;;;;;;5095000;28;20055;-75
2022/05/26 04:06:21;;;;;;;0.40;0.40;;;13.60;99.90;;;;;;5094947;28;20044;-71
2022/05/26 04:08:47;;;;;;;0.67;0.67;;;13.60;99.90;;;;;;5094051;28;20051;-72
2022/05/26 04:11:13;;;;;;;0.30;0.30;;;13.60;99.90;;;;;;5094668;28;20048;-74
2022/05/26 04:13:39;;;;;;;0.52;0.52;;;13.60;99.90;;;;;;5094791;28;20050;-76
2022/05/26 04:16:05;;;;;;;0.40;0.40;;;13.60;99.90;;;;;;5094735;28;20484;-73
2022/05/26 04:18:31;;;;;;;0.50;0.50;;;13.60;99.90;;;;;;5094768;28;20143;-74
2022/05/26 04:21:07;;;;;;;0.40;0.40;;;13.60;99.90;;;;;;5094691;28;20403;-73
2022/05/26 04:23:33;;;;;;;0.40;0.40;;;13.70;99.90;;;;;;5094666;28;20042;-74
2022/05/26 04:25:59;;;;;;;0.40;0.40;;;13.70;99.90;;;;;;5094584;28;20541;-73
2022/05/26 04:28:24;;;;;;;0.40;0.40;;;13.70;99.90;;;;;;5094428;28;20126;-75
2022/05/26 04:30:50;;;;;;;0.30;0.30;;;13.70;99.90;;;;;;5094461;28;20162;-71
2022/05/26 04:33:15;;;;;;;0.35;0.35;;;13.70;99.90;;;;;;5094489;28;20071;-74
2022/05/26 04:35:41;;;;;;;24.42;1.65;;;13.80;99.90;;;;;;5094433;28;20048;-71
2022/05/26 04:38:06;;;;;;;0.68;0.68;;;13.80;99.90;;;;;;5094381;28;20044;-73
2022/05/26 04:40:32;;;;;;;0.60;0.60;;;13.80;99.90;;;;;;5094320;28;20051;-77
2022/05/26 04:42:58;;;;;;;0.30;0.30;;;13.90;99.90;;;;;;5094265;28;20541;-74
2022/05/26 04:45:23;;;;;;;0.30;0.30;;;13.80;99.90;;;;;;5094685;28;20426;-76
2022/05/26 04:47:49;;;;;;;1.07;0.90;;;13.90;99.90;;;;;;5094548;28;20036;-77
2022/05/26 04:50:14;;;;;;;0.50;0.50;;;13.90;99.90;;;;;;5094458;28;20040;-76
2022/05/26 04:52:40;;;;;;;0.30;0.30;;;14.00;99.90;;;;;;5094137;28;20101;-71
2022/05/26 04:55:06;;;;;;;0.40;0.40;;;14.00;99.90;;;;;;5093545;28;20043;-73
2022/05/26 04:57:32;;;;;;;0.43;0.43;;;14.00;99.90;;;;;;5094357;28;20044;-74
2022/05/26 04:59:58;;;;;;;2.00;0.95;;;14.00;99.90;;;;;;5093808;28;20044;-77
2022/05/26 05:02:24;;;;;;;0.40;0.40;;;14.00;99.90;;;;;;5094364;28;20054;-75
2022/05/26 05:04:50;;;;;;;1.00;0.97;;;14.00;99.90;;;;;;5093934;28;20036;-73
2022/05/26 05:07:17;;;;;;;0.40;0.40;;;14.00;99.90;;;;;;5094021;28;20664;-77
2022/05/26 05:09:44;;;;;;;1.23;1.13;;;13.90;99.90;;;;;;5093805;28;20097;-73
2022/05/26 05:12:17;;;;;;;0.30;0.30;;;13.90;99.90;;;;;;5093805;28;20055;-74
2022/05/26 05:14:46;;;;;;;0.30;0.30;;;13.90;99.90;;;;;;5094065;28;20040;-75
2022/05/26 05:17:12;;;;;;;0.30;0.30;;;13.80;99.90;;;;;;5093850;28;20488;-75
2022/05/26 05:19:38;;;;;;;0.30;0.30;;;13.80;99.90;;;;;;5093539;28;20381;-73
2022/05/26 05:22:16;;;;;;;0.30;0.30;;;13.90;99.90;;;;;;5092886;28;20054;-74
2022/05/26 05:25:00;;;;;;;0.73;0.73;;;14.00;99.90;;;;;;5093617;28;20047;-72
2022/05/26 05:27:37;;;;;;;0.40;0.40;;;14.20;99.90;;;;;;5093864;28;20040;-76
2022/05/26 05:30:10;;;;;;;0.30;0.30;;;14.50;99.90;;;;;;5093805;28;20094;-75
2022/05/26 05:32:45;;;;;;;1.98;0.38;;;14.80;99.90;;;;;;5093672;28;20094;-74
2022/05/26 05:35:15;;;;;;;0.30;0.30;;;14.90;99.90;;;;;;5093684;28;20087;-74
2022/05/26 05:37:41;;;;;;;0.30;0.30;;;15.00;99.90;;;;;;5093628;28;20040;-74
2022/05/26 05:40:07;;;;;;;1.75;1.65;;;15.00;99.90;;;;;;5094163;28;20080;-74
2022/05/26 05:42:33;;;;;;;0.30;0.30;;;15.10;99.90;;;;;;5093359;28;20484;-70
2022/05/26 05:44:58;;;;;;;0.77;0.77;;;15.00;99.90;;;;;;5093534;28;20043;-72
2022/05/26 05:47:24;;;;;;;0.30;0.30;;;15.10;99.90;;;;;;5093338;28;20040;-70
2022/05/26 05:49:50;;;;;;;0.30;0.30;;;15.10;99.90;;;;;;5093531;28;20158;-74
2022/05/26 05:52:20;;;;;;;0.30;0.30;;;15.10;99.90;;;;;;5094200;28;20040;-73
2022/05/26 05:54:46;;;;;;;0.50;0.50;;;15.20;99.90;;;;;;5093876;28;20040;-75
2022/05/26 05:57:11;;;;;;;0.30;0.30;;;15.20;99.90;;;;;;5093480;28;20044;-73
2022/05/26 05:59:37;;;;;;;0.63;0.63;;;15.20;99.90;;;;;;5093535;28;20044;-72
2022/05/26 06:02:03;;;;;;;0.30;0.30;;;15.30;99.90;;;;;;5093427;28;20040;-72
2022/05/26 06:04:29;;;;;;;0.30;0.30;;;15.50;99.90;;;;;;5093196;28;20044;-75
2022/05/26 06:06:54;;;;;;;0.30;0.30;;;15.70;99.90;;;;;;5095806;28;20048;-73
2022/05/26 06:09:20;;;;;;;0.30;0.30;;;16.00;99.90;;;;;;5097006;28;20047;-74
2022/05/26 06:11:47;;;;;;;0.30;0.30;;;16.30;99.90;;;;;;5097495;28;20408;-75
2022/05/26 06:14:14;;;;;;;0.30;0.30;;;16.60;99.90;;;;;;5096844;28;20570;-74
2022/05/26 06:16:40;;;;;;;0.30;0.30;;;16.80;99.90;;;;;;5097223;28;20123;-75
2022/05/26 06:19:05;;;;;;;2.23;0.73;;;17.00;99.90;;;;;;5097017;28;20048;-76
2022/05/26 06:21:32;;;;;;;0.50;0.50;;;17.10;99.90;;;;;;5096969;28;20208;-75
2022/05/26 06:23:58;;;;;;;;;;;17.20;99.90;;;;;;5097349;28;20048;-76
2022/05/26 06:26:24;;;;;;;0.30;0.30;;;17.10;99.90;;;;;;5096810;28;19920;-71
2022/05/26 06:31:34;;;;;;;0.40;0.40;;;17.10;99.90;;;;;;5096702;28;20056;-75
2022/05/26 06:39:28;;;;;;;0.30;0.30;;;17.50;99.90;;;;;;5096756;28;20051;-74
2022/05/26 06:42:06;;;;;;;0.30;0.30;;;17.70;99.90;;;;;;5096564;28;20532;-75
2022/05/26 06:44:32;;;;;;;;;;;17.70;99.90;;;;;;5096946;28;20054;-74
2022/05/26 06:46:58;;;;;;;0.30;0.30;;;17.90;99.90;;;;;;5096871;28;19920;-72
2022/05/26 06:49:23;;;;;;;0.30;0.30;;;17.90;99.90;;;;;;5096444;28;20087;-76
2022/05/26 06:51:49;;;;;;;0.30;0.30;;;17.80;99.90;;;;;;5096480;28;20051;-75
2022/05/26 06:54:14;;;;;;;0.20;0.20;;;17.70;99.90;;;;;;5096380;28;20048;-73
2022/05/26 06:56:40;;;;;;;0.40;0.40;;;17.50;99.90;;;;;;5096343;28;20486;-71
2022/05/26 06:59:06;;;;;;;0.30;0.30;;;17.30;99.90;;;;;;5096367;28;20079;-73
2022/05/26 07:01:32;;;;;;;0.30;0.30;;;17.30;99.90;;;;;;5096277;28;20043;-72
2022/05/26 07:03:58;;;;;;;0.30;0.30;;;17.20;99.90;;;;;;5096219;28;20040;-74
2022/05/26 07:06:25;;;;;;;0.30;0.30;;;17.20;99.90;;;;;;5096137;28;20471;-76
2022/05/26 07:08:52;;;;;;;0.30;0.30;;;17.10;99.90;;;;;;5096086;28;20051;-72
2022/05/26 07:11:18;;;;;;;0.30;0.30;;;17.20;99.90;;;;;;5096581;28;20426;-74
2022/05/26 07:13:44;;;;;;;0.30;0.30;;;17.20;99.90;;;;;;5096035;28;20131;-72
2022/05/26 07:16:11;;;;;;;0.30;0.30;;;17.30;99.90;;;;;;5095801;28;20044;-76
2022/05/26 07:18:38;;;;;;;0.28;0.28;;;17.20;99.90;;;;;;5095593;28;20047;-73
2022/05/26 07:21:04;;;;;;;;;;;17.10;99.90;;;;;;5095411;28;20052;-76
2022/05/26 07:23:30;;;;;;;0.30;0.30;;;17.10;99.90;;;;;;5095833;28;19989;-74
2022/05/26 07:25:56;;;;;;;0.30;0.30;;;17.10;99.90;;;;;;5095564;28;20135;-72
2022/05/26 07:28:23;;;;;;;0.30;0.30;;;17.20;99.90;;;;;;5095798;28;20472;-71
2022/05/26 07:30:49;;;;;;;0.63;0.63;;;17.30;99.90;;;;;;5095796;28;20476;-71
2022/05/26 07:33:15;;;;;;;0.40;0.40;;;17.60;99.90;;;;;;5095653;28;20055;-71
2022/05/26 07:35:41;;;;;;;0.30;0.30;;;17.50;99.90;;;;;;5095733;28;20040;-75
2022/05/26 07:43:37;;;;;;;0.30;0.30;;;17.60;99.90;;;;;;5095751;28;20143;-72
2022/05/26 07:46:04;;;;;;;0.30;0.30;;;17.70;99.90;;;;;;5095452;28;20094;-74
2022/05/26 07:48:30;;;;;;;;;;;17.60;99.90;;;;;;5095715;28;20055;-74
2022/05/26 07:50:55;;;;;;;0.50;0.50;;;17.70;99.90;;;;;;5095220;28;19920;-72
2022/05/26 07:53:21;;;;;;;1.30;0.30;;;17.60;99.90;;;;;;5095160;28;20044;-74
2022/05/26 07:55:47;;;;;;;0.20;0.20;;;17.70;99.90;;;;;;5093971;28;20066;-72
2022/05/26 07:58:13;;;;;;;5.13;0.60;;;17.80;99.90;;;;;;5094781;28;20062;-74
2022/05/26 08:00:40;;;;;;;0.30;0.30;;;17.80;99.90;;;;;;5094486;28;20048;-76
2022/05/26 08:03:06;;;;;;;0.30;0.30;;;18.00;99.90;;;;;;5094965;28;20040;-73
2022/05/26 08:05:32;;;;;;;0.30;0.30;;;18.00;99.90;;;;;;5094790;28;20040;-74
2022/05/26 08:07:58;;;;;;;0.30;0.30;;;18.00;99.90;;;;;;5094973;28;20044;-74
2022/05/26 08:10:24;;;;;;;0.30;0.30;;;18.20;99.90;;;;;;5094711;28;20063;-75
2022/05/26 08:12:50;;;;;;;0.30;0.30;;;18.30;99.90;;;;;;5095120;28;20503;-72
2022/05/26 08:15:16;;;;;;;0.30;0.30;;;18.50;99.90;;;;;;5094968;28;20499;-76
2022/05/26 08:17:41;;;;;;;2.33;1.17;;;18.80;99.90;;;;;;5094567;28;20506;-76
2022/05/26 08:20:08;;;;;;;0.30;0.30;;;18.70;99.90;;;;;;5094727;28;20136;-71
2022/05/26 08:22:34;;;;;;;0.30;0.30;;;18.60;99.90;;;;;;5094503;28;20067;-73
2022/05/26 08:24:59;;;;;;;0.20;0.20;;;18.50;99.90;;;;;;5094562;28;20036;-75
2022/05/26 08:27:26;;;;;;;0.30;0.30;;;18.50;99.90;;;;;;5094591;28;20036;-76
2022/05/26 08:29:56;;;;;;;0.30;0.30;;;18.40;99.90;;;;;;5093648;28;20116;-77
2022/05/26 08:32:23;;;;;;;0.30;0.30;;;18.50;99.90;;;;;;5094560;28;20505;-75
2022/05/26 08:34:49;;;;;;;0.30;0.30;;;18.50;99.90;;;;;;5094198;28;20044;-74
2022/05/26 08:37:17;;;;;;;0.30;0.30;;;18.60;99.90;;;;;;5094875;28;20048;-75
2022/05/26 08:39:43;;;;;;;0.30;0.30;;;18.60;99.90;;;;;;5094397;28;20121;-76
2022/05/26 08:42:22;;;;;;;0.40;0.40;;;18.70;99.90;;;;;;5094811;28;20044;-76
2022/05/26 08:44:49;;;;;;;0.30;0.30;;;18.80;99.90;;;;;;5094492;28;20086;-76
2022/05/26 08:47:18;;;;;;;0.30;0.30;;;19.20;99.90;;;;;;5094167;28;20480;-73
2022/05/26 08:50:10;;;;;;;0.30;0.30;;;19.40;99.90;;;;;;5094193;28;20105;-71
2022/05/26 08:52:47;;;;;;;0.30;0.30;;;19.80;99.90;;;;;;5094142;28;20537;-75
2022/05/26 08:55:19;;;;;;;;;;;19.80;99.90;;;;;;5094764;28;20430;-76
2022/05/26 08:58:06;;;;;;;0.20;0.20;;;19.50;99.90;;;;;;5094126;28;19920;-75
2022/05/26 09:00:33;;;;;;;0.20;0.20;;;19.10;99.90;;;;;;5094553;28;20040;-76
2022/05/26 09:03:00;;;;;;;0.20;0.20;;;19.10;99.90;;;;;;5094039;28;20036;-74
2022/05/26 09:05:32;;;;;;;0.30;0.30;;;19.10;99.90;;;;;;5094004;28;20114;-74
2022/05/26 09:13:41;;;;;;;0.30;0.30;;;18.90;99.90;;;;;;5093888;28;20496;-71
2022/05/26 09:16:08;;;;;;;0.30;0.30;;;19.20;99.90;;;;;;5093832;28;20075;-72
2022/05/26 09:18:34;;;;;;;0.30;0.30;;;19.30;99.90;;;;;;5093854;28;20440;-74
2022/05/26 09:21:22;;;;;;;0.30;0.30;;;19.50;99.90;;;;;;5093759;28;20430;-76
2022/05/26 09:23:48;;;;;;;0.20;0.20;;;19.70;99.90;;;;;;5093918;28;20040;-72
2022/05/26 09:26:28;;;;;;;0.60;0.50;;;19.60;99.90;;;;;;5093663;28;20040;-74
2022/05/26 09:29:06;;;;;;;0.30;0.30;;;19.70;99.90;;;;;;5093765;28;20047;-75
2022/05/26 09:31:34;;;;;;;0.30;0.30;;;19.70;99.90;;;;;;5093665;28;20079;-73
2022/05/26 09:34:32;;;;;;;0.20;0.20;;;19.40;99.90;;;;;;5093716;28;20059;-75
2022/05/26 09:37:00;;;;;;;0.30;0.30;;;19.20;99.90;;;;;;5094137;28;20144;-76
2022/05/26 09:39:34;;;;;;;31.58;2.72;;;19.00;99.90;;;;;;5093700;28;20055;-74
2022/05/26 09:42:01;;;;;;;0.30;0.30;;;18.80;99.90;;;;;;5097695;28;20513;-73
2022/05/26 09:44:30;;;;;;;0.30;0.30;;;18.90;99.90;;;;;;5097624;28;20044;-71
2022/05/26 09:46:58;;;;;;;0.30;0.30;;;18.90;99.90;;;;;;5097981;28;20048;-74
2022/05/26 09:49:31;;;;;;;0.50;0.50;;;18.90;99.90;;;;;;5097602;28;20040;-75
2022/05/26 09:52:20;;;;;;;0.25;0.25;;;19.20;99.90;;;;;;5097347;28;20480;-75
2022/05/26 09:54:47;;;;;;;0.30;0.30;;;19.30;99.90;;;;;;5097779;28;20514;-74
2022/05/26 09:57:19;;;;;;;0.20;0.20;;;19.50;99.90;;;;;;5096527;28;20089;-74
2022/05/26 09:59:45;;;;;;;0.30;0.30;;;19.50;99.90;;;;;;5097577;28;20230;-74
2022/05/26 10:02:16;;;;;;;0.30;0.30;;;19.80;99.90;;;;;;5097497;28;20127;-71
2022/05/26 10:04:53;;;;;;;0.20;0.20;;;20.20;99.90;;;;;;5097577;28;20150;-74
2022/05/26 10:07:30;;;;;;;;;;;20.40;99.90;;;;;;5098816;28;20043;-74
2022/05/26 10:10:18;;;;;;;0.20;0.20;;;20.60;99.90;;;;;;5099002;28;19920;-73
2022/05/26 10:12:53;;;;;;;;;;;20.60;99.90;;;;;;5098687;28;20395;-72
2022/05/26 10:15:27;;;;;;;0.30;0.30;;;20.50;99.90;;;;;;5098101;28;20261;-74
2022/05/26 10:18:31;;;;;;;0.20;0.20;;;20.40;99.90;;;;;;5098941;28;20048;-76
2022/05/26 10:21:31;;;;;;;0.20;0.20;;;20.50;99.90;;;;;;5000365;28;20050;-73
2022/05/26 10:24:40;;;;;;;0.30;0.30;;;20.40;99.90;;;;;;5000822;28;20049;-75
2022/05/26 10:27:23;;;;;;;0.30;0.30;;;20.30;99.90;;;;;;5097407;28;20136;-73
2022/05/26 10:30:26;;;;;;;0.30;0.30;;;20.20;99.90;;;;;;5098217;28;20090;-76
2022/05/26 10:33:10;;;;;;;0.30;0.30;;;20.10;99.90;;;;;;5098443;28;20139;-74
2022/05/26 10:36:05;;;;;;;0.30;0.30;;;20.10;99.90;;;;;;5097218;28;20066;-73
2022/05/26 10:39:13;;;;;;;0.30;0.30;;;20.10;99.90;;;;;;5098280;28;20051;-72
2022/05/26 10:41:46;;;;;;;0.20;0.20;;;19.70;99.90;;;;;;5060398;28;20435;-75
2022/05/26 10:44:41;;;;;;;0.30;0.30;;;19.40;99.90;;;;;;5098498;28;20101;-74
2022/05/26 10:47:19;;;;;;;0.30;0.30;;;19.30;99.90;;;;;;5101523;28;20052;-71
2022/05/26 10:49:53;;;;;;;;;;;19.10;99.90;;;;;;5103042;28;20391;-71
2022/05/26 10:52:36;;;;;;;0.30;0.30;;;19.20;99.90;;;;;;5101766;28;20010;-73
2022/05/26 10:55:05;;;;;;;0.22;0.22;;;19.30;99.90;;;;;;5098885;28;20055;-75
2022/05/26 10:57:43;;;;;;;0.30;0.30;;;19.10;99.90;;;;;;5097162;28;20052;-74
2022/05/26 11:00:21;;;;;;;0.20;0.20;;;19.00;99.90;;;;;;5096554;28;20040;-76
2022/05/26 11:03:08;;;;;;;0.30;0.30;;;19.00;99.90;;;;;;5096893;28;20044;-71
2022/05/26 11:05:40;;;;;;;0.20;0.20;;;19.30;99.90;;;;;;5098534;28;20036;-77
2022/05/26 11:08:13;;;;;;;0.40;0.40;;;19.50;99.90;;;;;;5096254;28;20047;-74
2022/05/26 11:10:48;;;;;;;0.30;0.30;;;19.40;99.90;;;;;;5095938;28;20056;-74
2022/05/26 11:13:44;;;;;;;0.30;0.30;;;19.40;99.90;;;;;;5096466;28;20048;-73
2022/05/26 11:19:21;;;;;;;0.30;0.30;;;18.90;99.90;;;;;;5096140;28;20056;-74
2022/05/26 11:21:46;;;;;;;0.30;0.30;;;18.80;99.90;;;;;;5096211;28;20054;-73
2022/05/26 11:24:12;;;;;;;0.20;0.20;;;18.60;99.90;;;;;;5096227;28;20399;-75
2022/05/26 11:26:41;;;;;;;0.30;0.30;;;18.60;99.90;;;;;;5096132;28;20539;-70
2022/05/26 11:29:21;;;;;;;0.20;0.20;;;18.60;99.90;;;;;;5095738;28;20526;-71
2022/05/26 11:37:54;;;;;;;0.30;0.30;;;19.10;99.90;;;;;;5095723;28;19920;-76
2022/05/26 11:40:29;;;;;;;0.30;0.30;;;19.30;99.90;;;;;;5095568;28;20048;-72
2022/05/26 11:42:58;;;;;;;4.63;0.55;;;19.20;99.90;;;;;;5095459;28;20051;-71
2022/05/26 11:45:33;;;;;;;0.30;0.30;;;19.40;99.90;;;;;;5095153;28;20123;-74
2022/05/26 11:48:02;;;;;;;0.30;0.30;;;19.70;99.90;;;;;;5095160;28;20551;-72
2022/05/26 11:50:30;;;;;;;0.30;0.30;;;20.20;99.90;;;;;;5095312;28;20059;-73
2022/05/26 11:52:56;;;;;;;0.25;0.25;;;20.60;99.90;;;;;;5095413;28;20441;-73
2022/05/26 11:55:54;;;;;;;0.40;0.40;;;20.50;99.90;;;;;;5095219;28;20181;-72
2022/05/26 11:58:38;;;;;;;0.75;0.70;;;20.60;99.90;;;;;;5094942;28;20484;-74
2022/05/26 12:01:19;;;;;;;0.30;0.30;;;20.60;99.90;;;;;;5095113;28;20040;-71
2022/05/26 12:03:53;;;;;;;0.30;0.30;;;20.60;99.90;;;;;;5095058;28;20044;-75
2022/05/26 12:06:41;;;;;;;0.20;0.20;;;20.50;99.90;;;;;;5094991;28;20043;-73
2022/05/26 12:09:28;;;;;;;0.30;0.30;;;20.50;99.90;;;;;;5095038;28;20055;-74
2022/05/26 12:12:24;;;;;;;0.35;0.35;;;20.70;99.90;;;;;;5095263;28;20051;-73
2022/05/26 12:14:53;;;;;;;0.30;0.30;;;20.80;99.90;;;;;;5083693;28;20091;-74
2022/05/26 12:17:48;;;;;;;6.18;0.47;;;20.80;99.90;;;;;;5094818;28;20051;-76
2022/05/26 12:20:13;;;;;;;0.30;0.30;;;20.70;99.90;;;;;;5095089;28;20052;-74
2022/05/26 12:22:54;;;;;;;0.30;0.30;;;20.70;99.90;;;;;;5094636;28;20054;-73
2022/05/26 12:25:39;;;;;;;0.30;0.30;;;20.90;99.90;;;;;;5094576;28;20036;-73
2022/05/26 12:28:06;;;;;;;0.30;0.30;;;21.00;99.90;;;;;;5094655;28;20044;-71
2022/05/26 12:30:40;;;;;;;0.30;0.30;;;20.80;99.10;;;;;;5094470;28;20499;-73
2022/05/26 12:33:16;;;;;;;0.30;0.30;;;20.70;99.90;;;;;;5094607;28;20039;-74
2022/05/26 12:36:09;;;;;;;0.30;0.30;;;20.60;99.90;;;;;;5094437;28;20127;-76
2022/05/26 12:39:10;;;;;;;0.30;0.30;;;20.50;99.90;;;;;;5094644;28;20101;-76
2022/05/26 12:42:00;;;;;;;0.30;0.30;;;20.60;99.90;;;;;;5094308;28;20048;-76
2022/05/26 12:44:49;;;;;;;0.20;0.20;;;20.60;99.90;;;;;;5094202;28;20040;-73
2022/05/26 12:47:24;;;;;;;0.20;0.20;;;20.40;99.90;;;;;;5094278;28;20043;-75
2022/05/26 12:50:07;;;;;;;0.30;0.30;;;20.30;99.90;;;;;;5094349;28;20054;-73
2022/05/26 12:52:57;;;;;;;0.30;0.30;;;20.60;99.90;;;;;;5095038;28;20094;-74
2022/05/26 12:55:57;;;;;;;0.20;0.20;;;20.60;99.90;;;;;;5094126;28;20453;-75
2022/05/26 12:58:31;;;;;;;0.25;0.25;;;20.50;99.90;;;;;;5094212;28;20040;-76
2022/05/26 13:00:57;;;;;;;0.30;0.30;;;20.30;99.90;;;;;;5094456;28;20097;-73
2022/05/26 13:03:29;;;;;;;0.20;0.20;;;20.20;99.90;;;;;;5094286;28;20048;-74
2022/05/26 13:06:20;;;;;;;0.30;0.30;;;20.30;99.90;;;;;;5093939;28;20547;-73
2022/05/26 13:08:47;;;;;;;0.20;0.20;;;20.30;99.90;;;;;;5089954;28;20056;-75
2022/05/26 13:11:27;;;;;;;0.20;0.20;;;20.50;99.90;;;;;;5094137;28;20434;-76
2022/05/26 13:13:56;;;;;;;0.20;0.20;;;20.60;99.90;;;;;;5093967;28;20100;-73
2022/05/26 13:16:31;;;;;;;0.85;0.30;;;20.60;99.90;;;;;;5093394;28;20044;-74
2022/05/26 13:19:16;;;;;;;0.20;0.20;;;20.70;99.90;;;;;;5094015;28;20084;-73
2022/05/26 13:21:47;;;;;;;0.20;0.20;;;20.70;99.90;;;;;;5093966;28;20055;-73
2022/05/26 13:24:15;;;;;;;0.20;0.20;;;20.80;99.90;;;;;;5093911;28;20131;-71
2022/05/26 13:26:42;;;;;;;0.30;0.30;;;20.90;99.90;;;;;;5093716;28;20131;-72
2022/05/26 13:29:08;;;;;;;0.20;0.20;;;20.90;99.90;;;;;;5093860;28;20118;-73
2022/05/26 13:34:27;;;;;;;0.63;0.50;;;20.80;99.20;;;;;;5094096;28;20059;-76
2022/05/26 13:36:53;;;;;;;0.30;0.30;;;21.00;99.10;;;;;;5093965;28;20403;-71
2022/05/26 13:39:22;;;;;;;0.20;0.20;;;21.00;99.70;;;;;;5092682;28;20040;-73
2022/05/26 13:41:51;;;;;;;0.20;0.20;;;20.80;99.90;;;;;;5093722;28;20654;-76
2022/05/26 13:44:27;;;;;;;0.30;0.30;;;20.80;99.90;;;;;;5093512;28;20044;-73
2022/05/26 13:46:53;;;;;;;0.20;0.20;;;20.80;99.90;;;;;;5093565;28;20483;-74
2022/05/26 13:49:39;;;;;;;0.30;0.30;;;20.90;99.90;;;;;;5092665;28;20077;-75
2022/05/26 13:52:09;;;;;;;0.38;0.38;;;20.80;99.60;;;;;;5093511;28;20096;-73
2022/05/26 13:54:44;;;;;;;0.30;0.30;;;20.80;99.30;;;;;;5093458;28;20057;-75
2022/05/26 13:57:15;;;;;;;0.30;0.30;;;20.80;99.90;;;;;;5093556;28;20052;-77